sensor_id;sensor_type;location;lat;lon;timestamp;P1;durP1;ratioP1;P2;durP2;ratioP2
67546;SDS011;54381;53.516;49.424;2022-11-11T00:01:08;45.50;;;24.13;;
67546;SDS011;54381;53.516;49.424;2022-11-11T00:03:40;43.22;;;24.13;;
67546;SDS011;54381;53.516;49.424;2022-11-11T00:06:10;43.60;;;25.42;;
67546;SDS011;54381;53.516;49.424;2022-11-11T00:08:38;39.90;;;24.10;;
67546;SDS011;54381;53.516;49.424;2022-11-11T00:11:06;44.17;;;25.75;;
67546;SDS011;54381;53.516;49.424;2022-11-11T00:13:38;38.85;;;24.05;;
67546;SDS011;54381;53.516;49.424;2022-11-11T00:16:06;45.03;;;25.83;;
67546;SDS011;54381;53.516;49.424;2022-11-11T00:18:33;41.22;;;24.52;;
67546;SDS011;54381;53.516;49.424;2022-11-11T00:21:18;40.50;;;22.83;;
67546;SDS011;54381;53.516;49.424;2022-11-11T00:24:27;43.75;;;24.27;;
67546;SDS011;54381;53.516;49.424;2022-11-11T00:27:13;41.28;;;24.10;;
67546;SDS011;54381;53.516;49.424;2022-11-11T00:29:40;45.53;;;24.23;;
67546;SDS011;54381;53.516;49.424;2022-11-11T00:32:13;43.17;;;24.27;;
67546;SDS011;54381;53.516;49.424;2022-11-11T00:34:49;43.28;;;25.40;;
67546;SDS011;54381;53.516;49.424;2022-11-11T00:37:35;45.90;;;24.42;;
67546;SDS011;54381;53.516;49.424;2022-11-11T00:40:01;42.55;;;24.92;;
67546;SDS011;54381;53.516;49.424;2022-11-11T00:42:28;45.90;;;24.92;;
67546;SDS011;54381;53.516;49.424;2022-11-11T00:44:54;40.50;;;25.13;;
67546;SDS011;54381;53.516;49.424;2022-11-11T00:47:20;39.03;;;23.92;;
67546;SDS011;54381;53.516;49.424;2022-11-11T00:50:06;39.35;;;22.88;;
67546;SDS011;54381;53.516;49.424;2022-11-11T00:53:12;38.47;;;23.10;;
67546;SDS011;54381;53.516;49.424;2022-11-11T00:55:39;44.50;;;25.13;;
67546;SDS011;54381;53.516;49.424;2022-11-11T00:58:05;42.25;;;25.13;;
67546;SDS011;54381;53.516;49.424;2022-11-11T01:00:32;41.63;;;24.38;;
67546;SDS011;54381;53.516;49.424;2022-11-11T01:02:58;39.63;;;23.73;;
67546;SDS011;54381;53.516;49.424;2022-11-11T01:05:24;38.47;;;23.40;;
67546;SDS011;54381;53.516;49.424;2022-11-11T01:07:51;36.15;;;24.08;;
67546;SDS011;54381;53.516;49.424;2022-11-11T01:10:17;40.30;;;23.70;;
67546;SDS011;54381;53.516;49.424;2022-11-11T01:15:39;36.42;;;22.10;;
67546;SDS011;54381;53.516;49.424;2022-11-11T01:18:06;37.88;;;24.10;;
67546;SDS011;54381;53.516;49.424;2022-11-11T01:20:33;37.60;;;22.55;;
67546;SDS011;54381;53.516;49.424;2022-11-11T01:23:02;39.83;;;23.20;;
67546;SDS011;54381;53.516;49.424;2022-11-11T01:25:32;36.42;;;23.42;;
67546;SDS011;54381;53.516;49.424;2022-11-11T01:28:02;40.67;;;23.70;;
67546;SDS011;54381;53.516;49.424;2022-11-11T01:30:30;37.78;;;21.98;;
67546;SDS011;54381;53.516;49.424;2022-11-11T01:32:56;34.13;;;22.25;;
67546;SDS011;54381;53.516;49.424;2022-11-11T01:35:23;38.35;;;22.33;;
67546;SDS011;54381;53.516;49.424;2022-11-11T01:37:49;41.38;;;22.80;;
67546;SDS011;54381;53.516;49.424;2022-11-11T01:40:15;32.55;;;21.58;;
67546;SDS011;54381;53.516;49.424;2022-11-11T01:45:44;30.40;;;19.80;;
67546;SDS011;54381;53.516;49.424;2022-11-11T01:48:33;29.48;;;19.35;;
67546;SDS011;54381;53.516;49.424;2022-11-11T01:54:29;29.45;;;18.58;;
67546;SDS011;54381;53.516;49.424;2022-11-11T01:57:21;28.45;;;18.60;;
67546;SDS011;54381;53.516;49.424;2022-11-11T01:59:59;26.70;;;17.77;;
67546;SDS011;54381;53.516;49.424;2022-11-11T02:02:31;27.77;;;18.23;;
67546;SDS011;54381;53.516;49.424;2022-11-11T02:05:04;28.92;;;18.50;;
67546;SDS011;54381;53.516;49.424;2022-11-11T02:07:52;24.27;;;17.25;;
67546;SDS011;54381;53.516;49.424;2022-11-11T02:10:23;31.20;;;17.73;;
67546;SDS011;54381;53.516;49.424;2022-11-11T02:12:51;25.95;;;17.45;;
67546;SDS011;54381;53.516;49.424;2022-11-11T02:15:35;28.83;;;16.60;;
67546;SDS011;54381;53.516;49.424;2022-11-11T02:18:03;30.02;;;16.60;;
67546;SDS011;54381;53.516;49.424;2022-11-11T02:20:31;25.50;;;17.00;;
67546;SDS011;54381;53.516;49.424;2022-11-11T02:25:57;28.85;;;16.60;;
67546;SDS011;54381;53.516;49.424;2022-11-11T02:28:25;26.17;;;16.02;;
67546;SDS011;54381;53.516;49.424;2022-11-11T02:30:52;22.45;;;15.32;;
67546;SDS011;54381;53.516;49.424;2022-11-11T02:33:18;21.98;;;15.38;;
67546;SDS011;54381;53.516;49.424;2022-11-11T02:35:49;21.05;;;14.80;;
67546;SDS011;54381;53.516;49.424;2022-11-11T02:38:23;21.85;;;15.18;;
67546;SDS011;54381;53.516;49.424;2022-11-11T02:40:50;23.83;;;14.82;;
67546;SDS011;54381;53.516;49.424;2022-11-11T02:43:35;21.42;;;14.15;;
67546;SDS011;54381;53.516;49.424;2022-11-11T02:46:02;27.75;;;15.13;;
67546;SDS011;54381;53.516;49.424;2022-11-11T02:48:30;23.25;;;15.00;;
67546;SDS011;54381;53.516;49.424;2022-11-11T02:50:56;22.45;;;14.70;;
67546;SDS011;54381;53.516;49.424;2022-11-11T02:53:22;21.92;;;15.73;;
67546;SDS011;54381;53.516;49.424;2022-11-11T02:55:48;20.85;;;13.82;;
67546;SDS011;54381;53.516;49.424;2022-11-11T02:58:14;21.67;;;15.57;;
67546;SDS011;54381;53.516;49.424;2022-11-11T03:00:42;20.52;;;15.73;;
67546;SDS011;54381;53.516;49.424;2022-11-11T03:03:09;23.65;;;14.75;;
67546;SDS011;54381;53.516;49.424;2022-11-11T03:05:35;21.48;;;15.13;;
67546;SDS011;54381;53.516;49.424;2022-11-11T03:08:01;19.73;;;14.55;;
67546;SDS011;54381;53.516;49.424;2022-11-11T03:10:28;20.08;;;14.40;;
67546;SDS011;54381;53.516;49.424;2022-11-11T03:12:54;24.05;;;16.13;;
67546;SDS011;54381;53.516;49.424;2022-11-11T03:15:21;23.15;;;14.23;;
67546;SDS011;54381;53.516;49.424;2022-11-11T03:17:47;21.67;;;15.50;;
67546;SDS011;54381;53.516;49.424;2022-11-11T03:20:15;21.15;;;14.13;;
67546;SDS011;54381;53.516;49.424;2022-11-11T03:23:01;21.00;;;14.00;;
67546;SDS011;54381;53.516;49.424;2022-11-11T03:25:33;19.65;;;13.48;;
67546;SDS011;54381;53.516;49.424;2022-11-11T03:28:05;22.20;;;14.52;;
67546;SDS011;54381;53.516;49.424;2022-11-11T03:30:36;20.85;;;14.45;;
67546;SDS011;54381;53.516;49.424;2022-11-11T03:33:03;23.77;;;14.88;;
67546;SDS011;54381;53.516;49.424;2022-11-11T03:35:30;18.02;;;13.02;;
67546;SDS011;54381;53.516;49.424;2022-11-11T03:37:56;26.58;;;13.50;;
67546;SDS011;54381;53.516;49.424;2022-11-11T03:40:43;20.13;;;13.93;;
67546;SDS011;54381;53.516;49.424;2022-11-11T03:43:11;24.98;;;14.98;;
67546;SDS011;54381;53.516;49.424;2022-11-11T03:45:38;21.35;;;14.38;;
67546;SDS011;54381;53.516;49.424;2022-11-11T03:48:05;24.70;;;14.65;;
67546;SDS011;54381;53.516;49.424;2022-11-11T03:50:31;22.83;;;14.85;;
67546;SDS011;54381;53.516;49.424;2022-11-11T03:52:57;23.85;;;14.68;;
67546;SDS011;54381;53.516;49.424;2022-11-11T03:55:24;23.15;;;15.02;;
67546;SDS011;54381;53.516;49.424;2022-11-11T03:57:50;20.33;;;14.55;;
67546;SDS011;54381;53.516;49.424;2022-11-11T04:00:18;24.50;;;14.18;;
67546;SDS011;54381;53.516;49.424;2022-11-11T04:02:47;19.95;;;14.82;;
67546;SDS011;54381;53.516;49.424;2022-11-11T04:05:32;25.77;;;14.55;;
67546;SDS011;54381;53.516;49.424;2022-11-11T04:08:17;20.00;;;13.50;;
67546;SDS011;54381;53.516;49.424;2022-11-11T04:11:07;18.65;;;12.45;;
67546;SDS011;54381;53.516;49.424;2022-11-11T04:13:37;21.65;;;14.68;;
67546;SDS011;54381;53.516;49.424;2022-11-11T04:16:23;18.63;;;13.35;;
67546;SDS011;54381;53.516;49.424;2022-11-11T04:18:49;22.77;;;14.20;;
67546;SDS011;54381;53.516;49.424;2022-11-11T04:21:33;20.13;;;13.07;;
67546;SDS011;54381;53.516;49.424;2022-11-11T04:26:54;19.05;;;12.65;;
67546;SDS011;54381;53.516;49.424;2022-11-11T04:29:22;19.73;;;13.10;;
67546;SDS011;54381;53.516;49.424;2022-11-11T04:31:55;22.58;;;13.63;;
67546;SDS011;54381;53.516;49.424;2022-11-11T04:34:40;20.50;;;13.48;;
67546;SDS011;54381;53.516;49.424;2022-11-11T04:37:07;23.40;;;13.75;;
67546;SDS011;54381;53.516;49.424;2022-11-11T04:39:33;19.33;;;12.00;;
67546;SDS011;54381;53.516;49.424;2022-11-11T04:42:18;19.55;;;12.57;;
67546;SDS011;54381;53.516;49.424;2022-11-11T04:44:44;21.92;;;12.85;;
67546;SDS011;54381;53.516;49.424;2022-11-11T04:47:29;22.02;;;11.73;;
67546;SDS011;54381;53.516;49.424;2022-11-11T04:49:55;19.55;;;12.30;;
67546;SDS011;54381;53.516;49.424;2022-11-11T04:52:21;19.33;;;12.98;;
67546;SDS011;54381;53.516;49.424;2022-11-11T04:54:54;17.00;;;11.63;;
67546;SDS011;54381;53.516;49.424;2022-11-11T04:57:40;17.83;;;12.68;;
67546;SDS011;54381;53.516;49.424;2022-11-11T05:00:17;18.85;;;11.95;;
67546;SDS011;54381;53.516;49.424;2022-11-11T05:02:43;16.13;;;11.82;;
67546;SDS011;54381;53.516;49.424;2022-11-11T05:05:29;17.25;;;10.15;;
67546;SDS011;54381;53.516;49.424;2022-11-11T05:08:18;17.13;;;11.68;;
67546;SDS011;54381;53.516;49.424;2022-11-11T05:11:03;16.00;;;10.50;;
67546;SDS011;54381;53.516;49.424;2022-11-11T05:13:29;17.42;;;11.35;;
67546;SDS011;54381;53.516;49.424;2022-11-11T05:16:15;16.93;;;10.80;;
67546;SDS011;54381;53.516;49.424;2022-11-11T05:19:10;20.08;;;11.25;;
67546;SDS011;54381;53.516;49.424;2022-11-11T05:21:56;16.98;;;11.20;;
67546;SDS011;54381;53.516;49.424;2022-11-11T05:24:29;15.65;;;10.35;;
67546;SDS011;54381;53.516;49.424;2022-11-11T05:27:14;14.20;;;9.43;;
67546;SDS011;54381;53.516;49.424;2022-11-11T05:29:40;20.58;;;11.15;;
67546;SDS011;54381;53.516;49.424;2022-11-11T05:32:06;20.15;;;11.38;;
67546;SDS011;54381;53.516;49.424;2022-11-11T05:34:33;15.65;;;10.55;;
67546;SDS011;54381;53.516;49.424;2022-11-11T05:37:00;17.15;;;10.32;;
67546;SDS011;54381;53.516;49.424;2022-11-11T05:39:26;17.92;;;10.30;;
67546;SDS011;54381;53.516;49.424;2022-11-11T05:41:52;16.30;;;9.82;;
67546;SDS011;54381;53.516;49.424;2022-11-11T05:44:18;18.80;;;9.93;;
67546;SDS011;54381;53.516;49.424;2022-11-11T05:46:44;14.40;;;10.43;;
67546;SDS011;54381;53.516;49.424;2022-11-11T05:49:10;19.65;;;11.35;;
67546;SDS011;54381;53.516;49.424;2022-11-11T05:51:43;14.98;;;9.88;;
67546;SDS011;54381;53.516;49.424;2022-11-11T05:54:09;19.30;;;10.25;;
67546;SDS011;54381;53.516;49.424;2022-11-11T05:56:36;18.40;;;10.23;;
67546;SDS011;54381;53.516;49.424;2022-11-11T05:59:02;13.98;;;9.40;;
67546;SDS011;54381;53.516;49.424;2022-11-11T06:01:29;15.52;;;10.20;;
67546;SDS011;54381;53.516;49.424;2022-11-11T06:03:56;15.98;;;10.13;;
67546;SDS011;54381;53.516;49.424;2022-11-11T06:06:22;18.65;;;9.70;;
67546;SDS011;54381;53.516;49.424;2022-11-11T06:08:48;20.55;;;9.50;;
67546;SDS011;54381;53.516;49.424;2022-11-11T06:11:14;16.20;;;9.68;;
67546;SDS011;54381;53.516;49.424;2022-11-11T06:13:41;26.80;;;13.20;;
67546;SDS011;54381;53.516;49.424;2022-11-11T06:16:07;14.77;;;9.88;;
67546;SDS011;54381;53.516;49.424;2022-11-11T06:18:33;15.43;;;10.23;;
67546;SDS011;54381;53.516;49.424;2022-11-11T06:21:00;21.00;;;10.77;;
67546;SDS011;54381;53.516;49.424;2022-11-11T06:23:27;14.40;;;10.15;;
67546;SDS011;54381;53.516;49.424;2022-11-11T06:25:54;18.15;;;10.82;;
67546;SDS011;54381;53.516;49.424;2022-11-11T06:31:12;16.95;;;9.50;;
67546;SDS011;54381;53.516;49.424;2022-11-11T06:33:41;18.23;;;9.98;;
67546;SDS011;54381;53.516;49.424;2022-11-11T06:36:08;15.65;;;9.43;;
67546;SDS011;54381;53.516;49.424;2022-11-11T06:38:36;17.98;;;9.68;;
67546;SDS011;54381;53.516;49.424;2022-11-11T06:41:02;13.77;;;9.98;;
67546;SDS011;54381;53.516;49.424;2022-11-11T06:43:29;16.00;;;10.00;;
67546;SDS011;54381;53.516;49.424;2022-11-11T06:45:55;28.70;;;10.45;;
67546;SDS011;54381;53.516;49.424;2022-11-11T06:48:22;16.00;;;9.63;;
67546;SDS011;54381;53.516;49.424;2022-11-11T06:50:49;14.05;;;9.18;;
67546;SDS011;54381;53.516;49.424;2022-11-11T06:53:16;17.05;;;9.80;;
67546;SDS011;54381;53.516;49.424;2022-11-11T06:55:44;19.33;;;10.52;;
67546;SDS011;54381;53.516;49.424;2022-11-11T07:00:43;14.43;;;9.25;;
67546;SDS011;54381;53.516;49.424;2022-11-11T07:03:11;14.25;;;9.50;;
67546;SDS011;54381;53.516;49.424;2022-11-11T07:05:39;16.30;;;9.55;;
67546;SDS011;54381;53.516;49.424;2022-11-11T07:08:07;14.90;;;9.30;;
67546;SDS011;54381;53.516;49.424;2022-11-11T07:10:35;18.58;;;8.93;;
67546;SDS011;54381;53.516;49.424;2022-11-11T07:13:03;21.25;;;10.25;;
67546;SDS011;54381;53.516;49.424;2022-11-11T07:15:33;26.95;;;9.75;;
67546;SDS011;54381;53.516;49.424;2022-11-11T07:17:59;16.92;;;9.43;;
67546;SDS011;54381;53.516;49.424;2022-11-11T07:20:26;16.15;;;9.32;;
67546;SDS011;54381;53.516;49.424;2022-11-11T07:22:52;25.90;;;9.77;;
67546;SDS011;54381;53.516;49.424;2022-11-11T07:25:18;19.13;;;9.00;;
67546;SDS011;54381;53.516;49.424;2022-11-11T07:27:45;19.55;;;8.60;;
67546;SDS011;54381;53.516;49.424;2022-11-11T07:30:11;15.38;;;9.93;;
67546;SDS011;54381;53.516;49.424;2022-11-11T07:32:46;20.25;;;9.60;;
67546;SDS011;54381;53.516;49.424;2022-11-11T07:35:15;32.47;;;10.23;;
67546;SDS011;54381;53.516;49.424;2022-11-11T07:37:42;18.33;;;9.68;;
67546;SDS011;54381;53.516;49.424;2022-11-11T07:40:09;16.85;;;9.48;;
67546;SDS011;54381;53.516;49.424;2022-11-11T07:42:37;15.95;;;8.57;;
67546;SDS011;54381;53.516;49.424;2022-11-11T07:45:04;19.20;;;10.15;;
67546;SDS011;54381;53.516;49.424;2022-11-11T07:47:31;21.42;;;9.90;;
67546;SDS011;54381;53.516;49.424;2022-11-11T07:49:59;17.65;;;9.52;;
67546;SDS011;54381;53.516;49.424;2022-11-11T07:52:26;20.42;;;10.20;;
67546;SDS011;54381;53.516;49.424;2022-11-11T07:54:52;24.90;;;10.23;;
67546;SDS011;54381;53.516;49.424;2022-11-11T07:57:18;20.88;;;10.27;;
67546;SDS011;54381;53.516;49.424;2022-11-11T07:59:44;25.70;;;10.02;;
67546;SDS011;54381;53.516;49.424;2022-11-11T08:02:12;28.70;;;9.70;;
67546;SDS011;54381;53.516;49.424;2022-11-11T08:04:39;20.20;;;9.15;;
67546;SDS011;54381;53.516;49.424;2022-11-11T08:07:05;25.08;;;9.80;;
67546;SDS011;54381;53.516;49.424;2022-11-11T08:09:31;17.92;;;10.02;;
67546;SDS011;54381;53.516;49.424;2022-11-11T08:11:57;17.80;;;9.90;;
67546;SDS011;54381;53.516;49.424;2022-11-11T08:14:42;16.40;;;9.20;;
67546;SDS011;54381;53.516;49.424;2022-11-11T08:17:08;17.35;;;9.30;;
67546;SDS011;54381;53.516;49.424;2022-11-11T08:19:34;36.10;;;10.00;;
67546;SDS011;54381;53.516;49.424;2022-11-11T08:22:00;21.23;;;9.38;;
67546;SDS011;54381;53.516;49.424;2022-11-11T08:24:27;17.05;;;9.07;;
67546;SDS011;54381;53.516;49.424;2022-11-11T08:26:53;19.92;;;9.30;;
67546;SDS011;54381;53.516;49.424;2022-11-11T08:29:19;23.05;;;9.23;;
67546;SDS011;54381;53.516;49.424;2022-11-11T08:31:45;20.60;;;11.05;;
67546;SDS011;54381;53.516;49.424;2022-11-11T08:34:11;15.90;;;8.98;;
67546;SDS011;54381;53.516;49.424;2022-11-11T08:36:38;18.50;;;9.43;;
67546;SDS011;54381;53.516;49.424;2022-11-11T08:39:04;19.38;;;10.02;;
67546;SDS011;54381;53.516;49.424;2022-11-11T08:41:31;32.22;;;10.32;;
67546;SDS011;54381;53.516;49.424;2022-11-11T08:43:57;20.33;;;9.77;;
67546;SDS011;54381;53.516;49.424;2022-11-11T08:46:25;20.70;;;10.20;;
67546;SDS011;54381;53.516;49.424;2022-11-11T08:48:51;29.00;;;10.20;;
67546;SDS011;54381;53.516;49.424;2022-11-11T08:51:18;24.85;;;10.23;;
67546;SDS011;54381;53.516;49.424;2022-11-11T08:53:44;27.58;;;11.55;;
67546;SDS011;54381;53.516;49.424;2022-11-11T08:56:10;26.85;;;10.48;;
67546;SDS011;54381;53.516;49.424;2022-11-11T08:58:36;21.15;;;11.05;;
67546;SDS011;54381;53.516;49.424;2022-11-11T09:01:03;24.73;;;11.13;;
67546;SDS011;54381;53.516;49.424;2022-11-11T09:03:29;25.25;;;10.43;;
67546;SDS011;54381;53.516;49.424;2022-11-11T09:05:56;19.38;;;10.70;;
67546;SDS011;54381;53.516;49.424;2022-11-11T09:08:22;26.65;;;11.93;;
67546;SDS011;54381;53.516;49.424;2022-11-11T09:10:48;26.58;;;10.85;;
67546;SDS011;54381;53.516;49.424;2022-11-11T09:13:14;29.42;;;12.43;;
67546;SDS011;54381;53.516;49.424;2022-11-11T09:15:40;23.65;;;10.95;;
67546;SDS011;54381;53.516;49.424;2022-11-11T09:18:06;27.38;;;11.20;;
67546;SDS011;54381;53.516;49.424;2022-11-11T09:20:34;18.58;;;10.95;;
67546;SDS011;54381;53.516;49.424;2022-11-11T09:23:01;29.30;;;11.60;;
67546;SDS011;54381;53.516;49.424;2022-11-11T09:25:27;24.83;;;10.95;;
67546;SDS011;54381;53.516;49.424;2022-11-11T09:27:56;32.72;;;11.77;;
67546;SDS011;54381;53.516;49.424;2022-11-11T09:30:24;23.83;;;11.18;;
67546;SDS011;54381;53.516;49.424;2022-11-11T09:32:51;19.08;;;10.77;;
67546;SDS011;54381;53.516;49.424;2022-11-11T09:35:17;27.50;;;10.90;;
67546;SDS011;54381;53.516;49.424;2022-11-11T09:43:59;19.50;;;9.90;;
67546;SDS011;54381;53.516;49.424;2022-11-11T09:54:18;24.42;;;9.65;;
67546;SDS011;54381;53.516;49.424;2022-11-11T09:56:54;17.10;;;9.20;;
67546;SDS011;54381;53.516;49.424;2022-11-11T09:59:24;31.08;;;10.13;;
67546;SDS011;54381;53.516;49.424;2022-11-11T10:01:55;23.33;;;8.93;;
67546;SDS011;54381;53.516;49.424;2022-11-11T10:04:47;26.52;;;9.25;;
67546;SDS011;54381;53.516;49.424;2022-11-11T10:07:43;22.23;;;8.20;;
67546;SDS011;54381;53.516;49.424;2022-11-11T10:13:19;23.83;;;8.57;;
67546;SDS011;54381;53.516;49.424;2022-11-11T10:16:05;35.45;;;8.80;;
67546;SDS011;54381;53.516;49.424;2022-11-11T10:21:20;24.00;;;8.65;;
67546;SDS011;54381;53.516;49.424;2022-11-11T10:23:51;21.67;;;8.43;;
67546;SDS011;54381;53.516;49.424;2022-11-11T10:26:32;17.27;;;7.95;;
67546;SDS011;54381;53.516;49.424;2022-11-11T10:29:07;20.42;;;8.55;;
67546;SDS011;54381;53.516;49.424;2022-11-11T10:31:38;20.70;;;7.57;;
67546;SDS011;54381;53.516;49.424;2022-11-11T10:34:09;21.02;;;7.00;;
67546;SDS011;54381;53.516;49.424;2022-11-11T10:36:41;15.80;;;7.10;;
67546;SDS011;54381;53.516;49.424;2022-11-11T10:39:10;23.65;;;7.63;;
67546;SDS011;54381;53.516;49.424;2022-11-11T10:41:43;18.10;;;7.20;;
67546;SDS011;54381;53.516;49.424;2022-11-11T10:46:57;15.00;;;7.47;;
67546;SDS011;54381;53.516;49.424;2022-11-11T10:49:54;23.70;;;7.80;;
67546;SDS011;54381;53.516;49.424;2022-11-11T10:52:34;21.85;;;7.95;;
67546;SDS011;54381;53.516;49.424;2022-11-11T10:55:19;28.15;;;7.57;;
67546;SDS011;54381;53.516;49.424;2022-11-11T10:57:56;21.38;;;7.38;;
67546;SDS011;54381;53.516;49.424;2022-11-11T11:00:24;30.13;;;8.05;;
67546;SDS011;54381;53.516;49.424;2022-11-11T11:08:10;15.63;;;7.80;;
67546;SDS011;54381;53.516;49.424;2022-11-11T11:10:41;16.63;;;8.07;;
67546;SDS011;54381;53.516;49.424;2022-11-11T11:13:18;25.83;;;7.72;;
67546;SDS011;54381;53.516;49.424;2022-11-11T11:15:56;18.88;;;8.23;;
67546;SDS011;54381;53.516;49.424;2022-11-11T11:18:27;17.92;;;7.82;;
67546;SDS011;54381;53.516;49.424;2022-11-11T11:23:37;18.63;;;8.00;;
67546;SDS011;54381;53.516;49.424;2022-11-11T11:26:11;14.60;;;7.60;;
67546;SDS011;54381;53.516;49.424;2022-11-11T11:28:51;18.45;;;7.75;;
67546;SDS011;54381;53.516;49.424;2022-11-11T11:31:35;20.65;;;7.65;;
67546;SDS011;54381;53.516;49.424;2022-11-11T11:34:02;20.13;;;7.50;;
67546;SDS011;54381;53.516;49.424;2022-11-11T11:36:28;16.13;;;8.00;;
67546;SDS011;54381;53.516;49.424;2022-11-11T11:38:55;20.58;;;7.85;;
67546;SDS011;54381;53.516;49.424;2022-11-11T11:44:26;16.88;;;7.40;;
67546;SDS011;54381;53.516;49.424;2022-11-11T11:55:33;30.50;;;8.43;;
67546;SDS011;54381;53.516;49.424;2022-11-11T12:01:10;20.02;;;7.90;;
67546;SDS011;54381;53.516;49.424;2022-11-11T12:03:45;28.83;;;9.02;;
67546;SDS011;54381;53.516;49.424;2022-11-11T12:09:36;24.13;;;7.90;;
67546;SDS011;54381;53.516;49.424;2022-11-11T12:18:14;25.40;;;8.02;;
67546;SDS011;54381;53.516;49.424;2022-11-11T12:35:09;18.98;;;7.20;;
67546;SDS011;54381;53.516;49.424;2022-11-11T12:43:55;28.02;;;8.80;;
67546;SDS011;54381;53.516;49.424;2022-11-11T13:00:02;19.95;;;7.35;;
67546;SDS011;54381;53.516;49.424;2022-11-11T13:02:49;20.20;;;8.80;;
67546;SDS011;54381;53.516;49.424;2022-11-11T13:11:11;22.35;;;8.23;;
67546;SDS011;54381;53.516;49.424;2022-11-11T13:16:32;20.55;;;9.07;;
67546;SDS011;54381;53.516;49.424;2022-11-11T13:21:36;18.88;;;8.35;;
67546;SDS011;54381;53.516;49.424;2022-11-11T13:24:14;14.85;;;8.40;;
67546;SDS011;54381;53.516;49.424;2022-11-11T13:27:05;25.13;;;9.05;;
67546;SDS011;54381;53.516;49.424;2022-11-11T13:33:11;22.23;;;8.50;;
67546;SDS011;54381;53.516;49.424;2022-11-11T13:38:01;17.80;;;8.38;;
67546;SDS011;54381;53.516;49.424;2022-11-11T13:40:34;42.78;;;9.23;;
67546;SDS011;54381;53.516;49.424;2022-11-11T13:43:14;22.60;;;9.40;;
67546;SDS011;54381;53.516;49.424;2022-11-11T13:45:49;24.80;;;9.25;;
67546;SDS011;54381;53.516;49.424;2022-11-11T13:48:37;17.60;;;9.05;;
67546;SDS011;54381;53.516;49.424;2022-11-11T13:51:33;23.38;;;9.43;;
67546;SDS011;54381;53.516;49.424;2022-11-11T13:56:52;18.55;;;9.65;;
67546;SDS011;54381;53.516;49.424;2022-11-11T13:59:26;21.95;;;10.10;;
67546;SDS011;54381;53.516;49.424;2022-11-11T14:02:12;31.15;;;14.82;;
67546;SDS011;54381;53.516;49.424;2022-11-11T14:10:09;24.60;;;11.13;;
67546;SDS011;54381;53.516;49.424;2022-11-11T14:13:43;29.40;;;10.23;;
67546;SDS011;54381;53.516;49.424;2022-11-11T14:15:48;24.60;;;10.88;;
67546;SDS011;54381;53.516;49.424;2022-11-11T14:20:47;20.30;;;11.40;;
67546;SDS011;54381;53.516;49.424;2022-11-11T14:25:47;23.00;;;11.75;;
67546;SDS011;54381;53.516;49.424;2022-11-11T14:28:21;32.78;;;12.57;;
67546;SDS011;54381;53.516;49.424;2022-11-11T14:30:52;26.75;;;11.93;;
67546;SDS011;54381;53.516;49.424;2022-11-11T14:36:19;23.90;;;12.55;;
67546;SDS011;54381;53.516;49.424;2022-11-11T14:41:57;24.70;;;12.55;;
67546;SDS011;54381;53.516;49.424;2022-11-11T14:49:44;23.88;;;12.68;;
67546;SDS011;54381;53.516;49.424;2022-11-11T14:52:22;20.60;;;12.80;;
67546;SDS011;54381;53.516;49.424;2022-11-11T14:57:32;38.92;;;13.85;;
67546;SDS011;54381;53.516;49.424;2022-11-11T15:00:00;24.00;;;13.02;;
67546;SDS011;54381;53.516;49.424;2022-11-11T15:02:31;29.02;;;13.10;;
67546;SDS011;54381;53.516;49.424;2022-11-11T15:04:59;25.60;;;13.80;;
67546;SDS011;54381;53.516;49.424;2022-11-11T15:10:36;26.52;;;13.65;;
67546;SDS011;54381;53.516;49.424;2022-11-11T15:26:45;19.92;;;13.43;;
67546;SDS011;54381;53.516;49.424;2022-11-11T15:32:35;25.25;;;13.80;;
67546;SDS011;54381;53.516;49.424;2022-11-11T15:35:27;28.58;;;13.32;;
67546;SDS011;54381;53.516;49.424;2022-11-11T15:37:55;19.88;;;13.48;;
67546;SDS011;54381;53.516;49.424;2022-11-11T15:40:25;21.67;;;13.40;;
67546;SDS011;54381;53.516;49.424;2022-11-11T15:42:55;22.08;;;13.20;;
67546;SDS011;54381;53.516;49.424;2022-11-11T15:45:22;20.35;;;13.45;;
67546;SDS011;54381;53.516;49.424;2022-11-11T15:47:52;32.20;;;13.18;;
67546;SDS011;54381;53.516;49.424;2022-11-11T15:52:54;32.95;;;13.65;;
67546;SDS011;54381;53.516;49.424;2022-11-11T15:55:26;21.80;;;12.98;;
67546;SDS011;54381;53.516;49.424;2022-11-11T16:00:42;21.55;;;13.48;;
67546;SDS011;54381;53.516;49.424;2022-11-11T16:03:18;29.88;;;13.50;;
67546;SDS011;54381;53.516;49.424;2022-11-11T16:05:51;24.60;;;13.18;;
67546;SDS011;54381;53.516;49.424;2022-11-11T16:08:18;19.02;;;13.32;;
67546;SDS011;54381;53.516;49.424;2022-11-11T16:10:45;33.28;;;13.30;;
67546;SDS011;54381;53.516;49.424;2022-11-11T16:13:23;20.17;;;12.88;;
67546;SDS011;54381;53.516;49.424;2022-11-11T16:18:31;27.35;;;13.98;;
67546;SDS011;54381;53.516;49.424;2022-11-11T16:21:29;25.92;;;14.02;;
67546;SDS011;54381;53.516;49.424;2022-11-11T16:23:57;19.73;;;13.35;;
67546;SDS011;54381;53.516;49.424;2022-11-11T16:26:25;18.02;;;13.10;;
67546;SDS011;54381;53.516;49.424;2022-11-11T16:28:52;18.98;;;13.23;;
67546;SDS011;54381;53.516;49.424;2022-11-11T16:31:21;20.20;;;12.52;;
67546;SDS011;54381;53.516;49.424;2022-11-11T16:33:56;18.98;;;12.93;;
67546;SDS011;54381;53.516;49.424;2022-11-11T16:36:22;22.45;;;12.75;;
67546;SDS011;54381;53.516;49.424;2022-11-11T16:38:48;20.83;;;12.30;;
67546;SDS011;54381;53.516;49.424;2022-11-11T16:41:21;25.45;;;12.90;;
67546;SDS011;54381;53.516;49.424;2022-11-11T16:43:53;27.98;;;12.43;;
67546;SDS011;54381;53.516;49.424;2022-11-11T16:49:19;19.75;;;12.50;;
67546;SDS011;54381;53.516;49.424;2022-11-11T16:52:22;21.88;;;13.15;;
67546;SDS011;54381;53.516;49.424;2022-11-11T16:54:49;20.35;;;13.40;;
67546;SDS011;54381;53.516;49.424;2022-11-11T16:57:18;25.50;;;12.93;;
67546;SDS011;54381;53.516;49.424;2022-11-11T16:59:48;24.30;;;12.07;;
67546;SDS011;54381;53.516;49.424;2022-11-11T17:02:24;28.02;;;13.38;;
67546;SDS011;54381;53.516;49.424;2022-11-11T17:04:54;21.08;;;13.18;;
67546;SDS011;54381;53.516;49.424;2022-11-11T17:07:31;33.38;;;12.02;;
67546;SDS011;54381;53.516;49.424;2022-11-11T17:10:13;28.85;;;12.48;;
67546;SDS011;54381;53.516;49.424;2022-11-11T17:12:41;22.35;;;12.13;;
67546;SDS011;54381;53.516;49.424;2022-11-11T17:15:09;34.95;;;12.48;;
67546;SDS011;54381;53.516;49.424;2022-11-11T17:17:38;17.35;;;12.02;;
67546;SDS011;54381;53.516;49.424;2022-11-11T17:20:07;18.60;;;12.07;;
67546;SDS011;54381;53.516;49.424;2022-11-11T17:22:36;20.40;;;12.80;;
67546;SDS011;54381;53.516;49.424;2022-11-11T17:25:02;21.13;;;12.85;;
67546;SDS011;54381;53.516;49.424;2022-11-11T17:27:29;23.67;;;12.60;;
67546;SDS011;54381;53.516;49.424;2022-11-11T17:29:56;34.85;;;13.27;;
67546;SDS011;54381;53.516;49.424;2022-11-11T17:32:22;19.70;;;12.07;;
67546;SDS011;54381;53.516;49.424;2022-11-11T17:34:48;18.48;;;12.30;;
67546;SDS011;54381;53.516;49.424;2022-11-11T17:37:14;29.08;;;13.95;;
67546;SDS011;54381;53.516;49.424;2022-11-11T17:39:41;21.65;;;12.82;;
67546;SDS011;54381;53.516;49.424;2022-11-11T17:42:09;22.33;;;12.55;;